»·PEaware :: N305EL KLNK-KDEN

N305EL :: KLNK-KDEN

FLIGHT INFORMATION

Flight Status: Arrived
Operator: Privately registered:
United States
More flights under this callsign
Pilot: Cullen C. (26241)
Aircraft: BEECH AIRCRAFT A90-E90 KING AIR
(BE9L)
More flights by this aircraft type
Origin: KLNK Lincoln Mun
United States
Destination: KDEN Denver Intl
United States
More flights between these airports :: More routes between these airports
Route: + FONTO LANDR1
File this flight plan on PilotEdge
Remarks:
Altitude:
(Current/Filed)
12,000ft
Speed:
(Current/Filed)
180kts
Departed: 24-Mar-20 12:23 PM
Arrived: 24-Mar-20 01:49 PM
Distance/Time
Traveled:
366nm/1:25
Distance/Time
To Go:
Arrived

Flight Plot

Page will automatically refresh every two minutes.

Flight plan parsing failed; only flown route is shown


Map Options




Map Legend


Flown Route
Filed Route
Departure Airport
Arrival Airport
Navaid (VOR, NDB)
Fix

Horizontal Profiles

Position Reports

Time Latitude Longitude Heading Altitude Ground
Speed
24-Mar-20 12:21 40.909472 -98.702813 257 12447ft 248kts
24-Mar-20 12:22 40.893707 -98.783861 257 12418ft 248kts
24-Mar-20 12:23 40.877869 -98.864943 257 12391ft 249kts
24-Mar-20 12:24 40.862181 -98.944919 257 12410ft 247kts
24-Mar-20 12:25 40.846649 -99.023814 257 12433ft 244kts
24-Mar-20 12:26 40.830904 -99.103513 257 12457ft 242kts
24-Mar-20 12:27 40.814903 -99.184176 257 12432ft 241kts
24-Mar-20 12:28 40.798560 -99.266231 257 12401ft 241kts
24-Mar-20 12:29 40.782305 -99.347526 257 12390ft 241kts
24-Mar-20 12:30 40.765651 -99.430461 257 12377ft 241kts
24-Mar-20 12:31 40.748657 -99.514749 257 12405ft 239kts
24-Mar-20 12:32 40.731854 -99.597760 257 12395ft 240kts
24-Mar-20 12:33 40.715537 -99.678048 257 12385ft 241kts
24-Mar-20 12:34 40.698886 -99.759661 257 12392ft 241kts
24-Mar-20 12:35 40.682334 -99.840454 256 12324ft 242kts
24-Mar-20 12:36 40.698394 -99.922044 270 12252ft 240kts
24-Mar-20 12:37 40.691297 -100.008290 271 12209ft 241kts
24-Mar-20 12:38 40.693330 -100.096269 273 12182ft 240kts
24-Mar-20 12:39 40.696070 -100.184566 273 12120ft 241kts
24-Mar-20 12:40 40.698830 -100.273937 273 12054ft 242kts
24-Mar-20 12:41 40.702014 -100.358302 273 11977ft 242kts
24-Mar-20 12:42 40.704154 -100.444223 272 11965ft 241kts
24-Mar-20 12:43 40.706417 -100.530707 273 11942ft 241kts
24-Mar-20 12:44 40.708811 -100.616972 273 11928ft 241kts
24-Mar-20 12:45 40.711113 -100.701665 272 11926ft 241kts
24-Mar-20 12:46 40.713424 -100.789038 272 11933ft 241kts
24-Mar-20 12:47 40.715623 -100.874900 273 11944ft 240kts
24-Mar-20 12:48 40.717794 -100.961931 273 11951ft 240kts
24-Mar-20 12:49 40.719933 -101.050353 274 11954ft 240kts
24-Mar-20 12:50 40.722030 -101.139597 274 11961ft 240kts
24-Mar-20 12:51 40.724074 -101.229854 274 11966ft 240kts
24-Mar-20 12:52 40.725985 -101.317199 274 11970ft 240kts
24-Mar-20 12:54 40.727825 -101.404309 274 11974ft 240kts
24-Mar-20 12:55 40.729609 -101.491910 274 11973ft 240kts
24-Mar-20 12:56 40.731368 -101.581617 274 11968ft 240kts
24-Mar-20 12:57 40.734366 -101.743460 273 11976ft 240kts
24-Mar-20 12:58 40.735891 -101.830914 273 11980ft 241kts
24-Mar-20 12:59 40.737352 -101.918511 273 11979ft 241kts
24-Mar-20 13:00 40.738748 -102.006136 273 11975ft 241kts
24-Mar-20 13:01 40.740080 -102.094023 273 11969ft 241kts
24-Mar-20 13:02 40.741341 -102.181530 273 11961ft 241kts
24-Mar-20 13:03 40.742539 -102.269304 273 11951ft 241kts
24-Mar-20 13:04 40.743670 -102.356951 273 11937ft 241kts
24-Mar-20 13:05 40.744733 -102.444531 273 11943ft 241kts
24-Mar-20 13:06 40.745735 -102.532630 273 11927ft 241kts
24-Mar-20 13:07 40.746668 -102.620344 273 11960ft 240kts
24-Mar-20 13:08 40.747457 -102.700647 273 11942ft 225kts
24-Mar-20 13:09 40.748247 -102.785901 272 11952ft 238kts
24-Mar-20 13:10 40.748981 -102.872874 272 11953ft 240kts
24-Mar-20 13:11 40.749647 -102.959567 272 11973ft 240kts
24-Mar-20 13:12 40.750277 -103.046677 270 11973ft 245kts
24-Mar-20 13:13 40.750811 -103.135119 269 11973ft 249kts
24-Mar-20 13:13 40.751208 -103.209321 268 11974ft 253kts
24-Mar-20 13:15 40.751699 -103.314670 268 11983ft 254kts
24-Mar-20 13:16 40.752046 -103.404411 268 12011ft 254kts
24-Mar-20 13:16 40.740971 -103.476468 228 12030ft 251kts
24-Mar-20 13:17 40.695016 -103.541616 226 12027ft 252kts
24-Mar-20 13:19 40.639899 -103.617585 226 12010ft 246kts
24-Mar-20 13:19 40.604905 -103.665626 225 11958ft 225kts
24-Mar-20 13:20 40.577939 -103.702610 225 11952ft 154kts
24-Mar-20 13:21 40.551548 -103.738309 226 12028ft 161kts
24-Mar-20 13:22 40.521980 -103.779059 225 12076ft 193kts
24-Mar-20 13:23 40.485476 -103.828973 225 12073ft 206kts
24-Mar-20 13:24 40.447244 -103.881098 225 12072ft 210kts
24-Mar-20 13:25 40.410112 -103.931625 225 12072ft 212kts
24-Mar-20 13:26 40.373653 -103.981153 225 12072ft 212kts
24-Mar-20 13:27 40.337691 -104.029928 225 12038ft 213kts
24-Mar-20 13:28 40.303056 -104.079723 246 11968ft 215kts
24-Mar-20 13:29 40.284426 -104.142983 247 11544ft 215kts
24-Mar-20 13:30 40.266164 -104.204814 247 11119ft 215kts
24-Mar-20 13:31 40.248319 -104.264771 248 11020ft 205kts
24-Mar-20 13:32 40.232058 -104.318981 248 11012ft 199kts
24-Mar-20 13:33 40.215692 -104.372810 248 10655ft 209kts
24-Mar-20 13:34 40.198632 -104.427660 248 10101ft 215kts
24-Mar-20 13:35 40.181814 -104.480581 248 9218ft 215kts
24-Mar-20 13:36 40.165620 -104.530859 248 9022ft 191kts
24-Mar-20 13:37 40.134725 -104.557070 208 9017ft 176kts
24-Mar-20 13:38 40.101241 -104.578224 208 8406ft 190kts
24-Mar-20 13:39 40.066480 -104.600425 208 7697ft 199kts
24-Mar-20 13:40 40.031599 -104.623047 208 7102ft 198kts
24-Mar-20 13:41 39.999311 -104.644186 208 7011ft 179kts
24-Mar-20 13:42 39.972095 -104.661967 207 6986ft 150kts
24-Mar-20 13:43 39.946023 -104.660212 175 6974ft 131kts
24-Mar-20 13:44 39.917440 -104.659486 180 6573ft 168kts
24-Mar-20 13:45 39.889105 -104.659937 181 6056ft 159kts
24-Mar-20 13:46 39.867966 -104.660189 178 5612ft 120kts
24-Mar-20 13:47 39.853747 -104.660297 180 5437ft 41kts
24-Mar-20 13:48 39.847200 -104.660320 179 5437ft 35kts
24-Mar-20 13:49 39.840605 -104.661624 216 5437ft 37kts
24-Mar-20 13:50 39.837955 -104.665370 322 5437ft 19kts
24-Mar-20 13:51 39.838342 -104.665435 356 5437ft 0kts
24-Mar-20 13:52 39.838342 -104.665435 356 5437ft 0kts

Navigation Log

Ident Type
Flight plan parsing failed, navigation log unavailable